createdAt,value
2022-12-25T00:01:38.940Z,11.70
2022-12-25T00:04:05.517Z,11.07
2022-12-25T00:06:31.981Z,10.90
2022-12-25T00:08:58.411Z,11.48
2022-12-25T00:11:25.656Z,12.02
2022-12-25T00:13:52.049Z,11.57
2022-12-25T00:16:21.799Z,11.13
2022-12-25T00:18:48.557Z,11.00
2022-12-25T00:21:15.311Z,10.77
2022-12-25T00:23:41.991Z,10.18
2022-12-25T00:26:11.486Z,10.10
2022-12-25T00:28:38.624Z,10.30
2022-12-25T00:31:12.935Z,10.65
2022-12-25T00:33:41.268Z,10.55
2022-12-25T00:36:09.278Z,11.10
2022-12-25T00:38:37.152Z,10.05
2022-12-25T00:41:08.236Z,9.77
2022-12-25T00:43:36.374Z,10.68
2022-12-25T00:46:04.193Z,10.85
2022-12-25T00:48:31.429Z,10.35
2022-12-25T00:51:00.296Z,11.23
2022-12-25T00:53:27.310Z,10.40
2022-12-25T00:55:57.312Z,11.68
2022-12-25T00:58:24.723Z,9.80
2022-12-25T01:00:51.442Z,11.48
2022-12-25T01:03:18.603Z,11.38
2022-12-25T01:05:54.793Z,10.90
2022-12-25T01:08:21.151Z,11.30
2022-12-25T01:11:03.461Z,9.43
2022-12-25T01:13:31.755Z,10.38
2022-12-25T01:15:58.272Z,11.40
2022-12-25T01:18:25.969Z,10.63
2022-12-25T01:20:52.355Z,10.80
2022-12-25T01:23:18.787Z,11.38
2022-12-25T01:25:45.207Z,10.70
2022-12-25T01:28:11.586Z,10.20
2022-12-25T01:30:38.040Z,10.27
2022-12-25T01:33:04.806Z,10.48
2022-12-25T01:35:31.283Z,10.43
2022-12-25T01:37:57.726Z,10.48
2022-12-25T01:40:24.109Z,11.10
2022-12-25T01:42:50.520Z,11.13
2022-12-25T01:45:32.199Z,10.90
2022-12-25T01:47:59.179Z,10.75
2022-12-25T01:50:25.833Z,10.85
2022-12-25T01:52:52.654Z,10.90
2022-12-25T01:55:19.362Z,11.45
2022-12-25T01:57:45.995Z,10.77
2022-12-25T02:00:13.290Z,11.98
2022-12-25T02:02:40.870Z,11.23
2022-12-25T02:05:13.924Z,10.52
2022-12-25T02:07:41.338Z,11.63
2022-12-25T02:10:11.634Z,10.82
2022-12-25T02:12:38.183Z,11.80
2022-12-25T02:15:11.113Z,10.93
2022-12-25T02:17:58.777Z,11.00
2022-12-25T02:21:06.656Z,11.02
2022-12-25T02:23:50.936Z,10.40
2022-12-25T02:26:23.442Z,11.32
2022-12-25T02:29:01.564Z,11.82
2022-12-25T02:31:41.496Z,11.45
2022-12-25T02:34:20.742Z,11.63
2022-12-25T02:36:56.118Z,10.43
2022-12-25T02:39:50.732Z,10.57
2022-12-25T02:42:45.686Z,11.77
2022-12-25T02:45:33.086Z,11.38
2022-12-25T02:48:18.302Z,11.15
2022-12-25T02:51:03.314Z,11.18
2022-12-25T02:53:48.897Z,12.13
2022-12-25T02:56:34.438Z,10.80
2022-12-25T02:59:19.987Z,11.18
2022-12-25T03:02:05.309Z,10.68
2022-12-25T03:04:50.937Z,10.48
2022-12-25T03:07:21.533Z,11.38
2022-12-25T03:10:19.863Z,11.85
2022-12-25T03:12:52.345Z,11.43
2022-12-25T03:15:37.980Z,12.80
2022-12-25T03:18:09.824Z,12.90
2022-12-25T03:20:55.749Z,11.48
2022-12-25T03:23:44.322Z,11.65
2022-12-25T03:28:55.704Z,9.77
2022-12-25T03:31:28.738Z,11.50
2022-12-25T03:34:23.051Z,11.90
2022-12-25T03:37:29.807Z,11.88
2022-12-25T03:40:30.367Z,11.20
2022-12-25T03:43:36.950Z,11.25
2022-12-25T03:46:23.692Z,10.73
2022-12-25T03:49:11.502Z,12.35
2022-12-25T03:51:57.563Z,11.43
2022-12-25T03:54:44.133Z,11.73
2022-12-25T03:57:29.920Z,12.10
2022-12-25T04:00:14.991Z,12.65
2022-12-25T04:02:59.937Z,12.20
2022-12-25T04:05:45.475Z,11.52
2022-12-25T04:08:30.551Z,11.75
2022-12-25T04:11:15.708Z,12.00
2022-12-25T04:14:00.775Z,13.18
2022-12-25T04:16:45.552Z,12.52
2022-12-25T04:19:30.566Z,11.35
2022-12-25T04:22:15.679Z,11.77
2022-12-25T04:25:00.625Z,11.48
2022-12-25T04:27:46.055Z,10.32
2022-12-25T04:30:31.415Z,11.40
2022-12-25T04:33:19.490Z,11.45
2022-12-25T04:36:06.246Z,11.50
2022-12-25T04:38:33.143Z,12.77
2022-12-25T04:41:00.765Z,11.30
2022-12-25T04:43:27.222Z,11.65
2022-12-25T04:45:54.855Z,11.00
2022-12-25T04:48:21.404Z,11.48
2022-12-25T04:50:48.090Z,12.27
2022-12-25T04:53:14.752Z,10.75
2022-12-25T04:55:41.134Z,9.57
2022-12-25T04:58:07.710Z,10.45
2022-12-25T05:00:34.164Z,10.05
2022-12-25T05:03:00.790Z,9.43
2022-12-25T05:05:27.334Z,9.45
2022-12-25T05:07:53.771Z,8.45
2022-12-25T05:10:20.404Z,9.45
2022-12-25T05:12:46.862Z,8.43
2022-12-25T05:15:13.293Z,9.40
2022-12-25T05:17:39.716Z,9.27
2022-12-25T05:20:06.780Z,10.07
2022-12-25T05:22:33.269Z,8.85
2022-12-25T05:24:59.705Z,8.18
2022-12-25T05:27:26.173Z,8.43
2022-12-25T05:29:52.601Z,8.18
2022-12-25T05:32:18.969Z,8.38
2022-12-25T05:34:45.410Z,7.68
2022-12-25T05:37:11.891Z,7.57
2022-12-25T05:39:38.433Z,8.82
2022-12-25T05:42:04.915Z,8.23
2022-12-25T05:44:31.310Z,7.60
2022-12-25T05:46:57.775Z,7.55
2022-12-25T05:49:24.266Z,7.43
2022-12-25T05:51:50.639Z,7.25
2022-12-25T05:54:17.100Z,6.85
2022-12-25T05:56:43.493Z,6.93
2022-12-25T05:59:09.969Z,7.07
2022-12-25T06:01:36.614Z,8.20
2022-12-25T06:04:07.082Z,6.10
2022-12-25T06:06:38.412Z,6.93
2022-12-25T06:09:04.775Z,6.22
2022-12-25T06:11:31.144Z,5.95
2022-12-25T06:13:57.576Z,6.05
2022-12-25T06:16:23.990Z,6.18
2022-12-25T06:18:54.257Z,6.85
2022-12-25T06:21:20.735Z,6.70
2022-12-25T06:23:47.333Z,6.50
2022-12-25T06:26:18.599Z,5.85
2022-12-25T06:28:45.383Z,6.57
2022-12-25T06:31:17.736Z,5.95
2022-12-25T06:33:44.803Z,6.80
2022-12-25T06:36:14.279Z,5.63
2022-12-25T06:38:41.066Z,5.72
2022-12-25T06:41:10.366Z,5.43
2022-12-25T06:43:37.530Z,6.35
2022-12-25T06:46:09.916Z,5.70
2022-12-25T06:48:37.398Z,5.38
2022-12-25T06:51:04.458Z,5.63
2022-12-25T06:53:38.857Z,5.18
2022-12-25T06:58:34.654Z,5.47
2022-12-25T07:01:06.844Z,5.63
2022-12-25T07:03:33.757Z,5.93
2022-12-25T07:06:00.169Z,5.30
2022-12-25T07:08:26.533Z,5.55
2022-12-25T07:10:52.967Z,5.13
2022-12-25T07:13:19.386Z,5.30
2022-12-25T07:15:45.804Z,5.75
2022-12-25T07:18:12.182Z,5.10
2022-12-25T07:20:38.549Z,5.70
2022-12-25T07:23:05.004Z,5.03
2022-12-25T07:25:37.078Z,5.70
2022-12-25T07:28:04.028Z,5.32
2022-12-25T07:30:30.416Z,5.70
2022-12-25T07:32:57.427Z,5.15
2022-12-25T07:35:23.942Z,5.70
2022-12-25T07:37:50.405Z,5.57
2022-12-25T07:40:16.841Z,5.07
2022-12-25T07:42:43.250Z,5.40
2022-12-25T07:45:10.165Z,5.10
2022-12-25T07:47:36.532Z,5.45
2022-12-25T07:50:03.117Z,5.20
2022-12-25T07:52:29.542Z,5.07
2022-12-25T07:54:55.931Z,6.05
2022-12-25T07:57:22.386Z,5.07
2022-12-25T07:59:48.752Z,5.28
2022-12-25T08:02:15.462Z,5.88
2022-12-25T08:04:42.199Z,4.78
2022-12-25T08:07:08.706Z,5.57
2022-12-25T08:09:35.265Z,5.60
2022-12-25T08:12:01.632Z,5.65
2022-12-25T08:14:30.045Z,5.85
2022-12-25T08:16:56.531Z,5.50
2022-12-25T08:19:22.930Z,6.00
2022-12-25T08:21:49.363Z,5.88
2022-12-25T08:24:15.918Z,5.82
2022-12-25T08:26:42.434Z,6.07
2022-12-25T08:29:08.896Z,6.18
2022-12-25T08:31:38.354Z,5.63
2022-12-25T08:34:09.455Z,5.78
2022-12-25T08:36:36.385Z,6.78
2022-12-25T08:39:03.550Z,6.00
2022-12-25T08:41:30.628Z,5.30
2022-12-25T08:43:57.072Z,5.35
2022-12-25T08:46:23.866Z,6.13
2022-12-25T08:48:50.633Z,5.88
2022-12-25T08:51:20.185Z,5.43
2022-12-25T08:53:47.780Z,5.53
2022-12-25T08:56:14.839Z,6.75
2022-12-25T08:58:41.636Z,6.40
2022-12-25T09:01:08.564Z,5.63
2022-12-25T09:03:35.434Z,5.82
2022-12-25T09:06:04.215Z,6.10
2022-12-25T09:08:30.772Z,6.47
2022-12-25T09:11:01.714Z,6.60
2022-12-25T09:13:28.125Z,5.85
2022-12-25T09:15:54.528Z,5.90
2022-12-25T09:18:21.018Z,5.65
2022-12-25T09:20:47.389Z,6.18
2022-12-25T09:23:14.537Z,6.45
2022-12-25T09:25:41.034Z,6.20
2022-12-25T09:28:07.400Z,6.55
2022-12-25T09:30:33.854Z,6.20
2022-12-25T09:33:00.266Z,6.72
2022-12-25T09:35:26.778Z,6.10
2022-12-25T09:37:53.213Z,5.90
2022-12-25T09:40:21.708Z,6.57
2022-12-25T09:42:48.650Z,8.15
2022-12-25T09:45:18.816Z,6.80
2022-12-25T09:47:47.540Z,5.47
2022-12-25T09:50:34.406Z,5.70
2022-12-25T09:53:01.204Z,5.47
2022-12-25T09:55:31.242Z,5.53
2022-12-25T09:57:59.057Z,5.13
2022-12-25T10:00:29.269Z,5.60
2022-12-25T10:03:11.086Z,5.82
2022-12-25T10:06:15.853Z,4.80
2022-12-25T10:08:47.670Z,5.43
2022-12-25T10:11:30.976Z,6.15
2022-12-25T10:14:12.668Z,5.38
2022-12-25T10:16:58.269Z,4.75
2022-12-25T10:19:46.129Z,5.60
2022-12-25T10:22:45.790Z,7.47
2022-12-25T10:25:22.037Z,5.82
2022-12-25T10:28:15.451Z,5.47
2022-12-25T10:30:45.434Z,5.60
2022-12-25T10:33:17.141Z,5.93
2022-12-25T10:35:43.943Z,6.10
2022-12-25T10:38:16.326Z,5.72
2022-12-25T10:40:54.852Z,5.35
2022-12-25T10:43:25.735Z,6.13
2022-12-25T10:45:52.177Z,8.60
2022-12-25T10:48:25.834Z,7.32
2022-12-25T10:50:52.294Z,6.15
2022-12-25T10:53:29.187Z,6.20
2022-12-25T10:56:01.198Z,8.77
2022-12-25T10:58:28.258Z,9.60
2022-12-25T11:01:02.234Z,8.23
2022-12-25T11:03:32.020Z,7.68
2022-12-25T11:06:00.257Z,7.20
2022-12-25T11:08:30.090Z,7.40
2022-12-25T11:10:58.867Z,7.20
2022-12-25T11:13:27.632Z,7.10
2022-12-25T11:16:06.283Z,7.85
2022-12-25T11:18:50.405Z,7.15
2022-12-25T11:21:24.096Z,7.25
2022-12-25T11:24:03.122Z,8.38
2022-12-25T11:26:36.376Z,6.90
2022-12-25T11:29:03.583Z,8.38
2022-12-25T11:31:37.503Z,7.38
2022-12-25T11:34:07.980Z,7.82
2022-12-25T11:36:52.049Z,7.47
2022-12-25T11:39:31.820Z,7.03
2022-12-25T11:42:19.330Z,8.27
2022-12-25T11:44:49.184Z,7.07
2022-12-25T11:47:21.224Z,6.82
2022-12-25T11:50:00.140Z,7.40
2022-12-25T11:52:30.256Z,7.22
2022-12-25T11:55:08.444Z,12.00
2022-12-25T11:57:35.695Z,8.75
2022-12-25T12:00:06.929Z,10.18
2022-12-25T12:02:56.131Z,7.97
2022-12-25T12:05:28.497Z,8.35
2022-12-25T12:07:59.357Z,8.50
2022-12-25T12:10:38.163Z,8.07
2022-12-25T12:13:32.494Z,7.45
2022-12-25T12:15:59.132Z,8.27
2022-12-25T12:18:25.520Z,9.32
2022-12-25T12:21:27.374Z,8.77
2022-12-25T12:24:04.271Z,8.43
2022-12-25T12:26:36.651Z,9.27
2022-12-25T12:29:04.598Z,10.48
2022-12-25T12:31:46.517Z,9.73
2022-12-25T12:34:26.192Z,9.27
2022-12-25T12:36:59.806Z,11.20
2022-12-25T12:39:34.870Z,10.05
2022-12-25T12:42:01.598Z,10.65
2022-12-25T12:44:32.042Z,11.25
2022-12-25T12:46:58.523Z,14.77
2022-12-25T12:49:30.384Z,11.55
2022-12-25T12:52:23.774Z,10.95
2022-12-25T12:55:02.913Z,11.90
2022-12-25T12:57:33.106Z,11.57
2022-12-25T13:00:08.642Z,12.45
2022-12-25T13:03:05.259Z,12.73
2022-12-25T13:05:58.458Z,12.43
2022-12-25T13:08:44.721Z,12.30
2022-12-25T13:11:23.936Z,12.40
2022-12-25T13:13:55.093Z,10.88
2022-12-25T13:16:33.101Z,11.13
2022-12-25T13:19:03.764Z,12.70
2022-12-25T13:21:30.469Z,11.65
2022-12-25T13:24:01.824Z,12.65
2022-12-25T13:26:29.046Z,13.75
2022-12-25T13:28:56.212Z,13.20
2022-12-25T13:31:27.440Z,11.38
2022-12-25T13:34:03.002Z,12.38
2022-12-25T13:36:35.168Z,12.35
2022-12-25T13:39:01.701Z,11.68
2022-12-25T13:41:59.368Z,11.98
2022-12-25T13:44:27.845Z,12.55
2022-12-25T13:46:54.261Z,13.07
2022-12-25T13:49:23.246Z,13.48
2022-12-25T13:51:50.325Z,12.30
2022-12-25T13:54:17.507Z,11.15
2022-12-25T13:56:52.192Z,12.23
2022-12-25T13:59:21.000Z,11.50
2022-12-25T14:01:48.802Z,10.52
2022-12-25T14:04:17.527Z,11.07
2022-12-25T14:06:44.068Z,13.43
2022-12-25T14:09:12.116Z,10.02
2022-12-25T14:11:39.304Z,10.27
2022-12-25T14:14:20.349Z,11.20
2022-12-25T14:16:49.325Z,10.82
2022-12-25T14:19:28.198Z,11.38
2022-12-25T14:22:16.465Z,11.15
2022-12-25T14:24:42.959Z,11.10
2022-12-25T14:27:19.791Z,11.27
2022-12-25T14:29:47.142Z,10.93
2022-12-25T14:32:19.304Z,10.05
2022-12-25T14:34:47.591Z,10.80
2022-12-25T14:37:18.201Z,11.05
2022-12-25T14:39:47.978Z,11.15
2022-12-25T14:42:23.145Z,13.90
2022-12-25T14:44:59.810Z,11.85
2022-12-25T14:47:26.879Z,12.73
2022-12-25T14:49:54.522Z,11.70
2022-12-25T14:52:31.480Z,11.52
2022-12-25T14:55:00.701Z,10.70
2022-12-25T14:57:30.256Z,11.27
2022-12-25T14:59:59.919Z,12.25
2022-12-25T15:02:26.766Z,12.43
2022-12-25T15:04:53.580Z,14.13
2022-12-25T15:07:38.141Z,12.45
2022-12-25T15:12:53.613Z,13.40
2022-12-25T15:15:20.053Z,12.50
2022-12-25T15:17:46.437Z,13.27
2022-12-25T15:20:13.815Z,13.05
2022-12-25T15:23:10.334Z,12.55
2022-12-25T15:25:27.718Z,13.25
2022-12-25T15:27:54.412Z,12.52
2022-12-25T15:30:20.802Z,12.57
2022-12-25T15:32:47.321Z,17.42
2022-12-25T15:35:16.613Z,11.77
2022-12-25T15:37:43.066Z,12.45
2022-12-25T15:40:12.522Z,14.48
2022-12-25T15:42:39.249Z,13.18
2022-12-25T15:45:06.629Z,12.50
2022-12-25T15:47:33.361Z,15.45
2022-12-25T15:49:59.732Z,15.40
2022-12-25T15:52:26.159Z,17.35
2022-12-25T15:54:54.062Z,20.92
2022-12-25T15:57:22.234Z,19.48
2022-12-25T15:59:48.654Z,20.35
2022-12-25T16:02:17.784Z,17.17
2022-12-25T16:04:44.383Z,19.27
2022-12-25T16:07:15.704Z,23.65
2022-12-25T16:09:42.213Z,17.77
2022-12-25T16:12:08.605Z,18.75
2022-12-25T16:14:35.093Z,19.50
2022-12-25T16:17:01.479Z,16.70
2022-12-25T16:19:30.655Z,16.55
2022-12-25T16:21:57.128Z,17.45
2022-12-25T16:24:23.736Z,15.18
2022-12-25T16:26:50.111Z,14.10
2022-12-25T16:29:16.609Z,15.73
2022-12-25T16:31:42.993Z,16.00
2022-12-25T16:34:09.850Z,14.55
2022-12-25T16:36:36.849Z,15.15
2022-12-25T16:39:04.138Z,14.60
2022-12-25T16:41:30.719Z,15.60
2022-12-25T16:44:02.942Z,17.08
2022-12-25T16:46:29.399Z,18.40
2022-12-25T16:48:55.780Z,16.83
2022-12-25T16:51:22.229Z,15.88
2022-12-25T16:53:48.621Z,16.33
2022-12-25T16:56:18.167Z,17.80
2022-12-25T16:58:48.520Z,16.25
2022-12-25T17:01:17.772Z,16.35
2022-12-25T17:03:44.530Z,17.40
2022-12-25T17:06:15.797Z,19.55
2022-12-25T17:08:42.708Z,16.88
2022-12-25T17:11:09.344Z,17.63
2022-12-25T17:13:35.855Z,16.65
2022-12-25T17:16:17.757Z,16.48
2022-12-25T17:18:44.512Z,16.90
2022-12-25T17:21:11.417Z,17.10
2022-12-25T17:23:38.401Z,16.48
2022-12-25T17:26:05.370Z,17.55
2022-12-25T17:28:32.305Z,18.95
2022-12-25T17:31:06.805Z,23.27
2022-12-25T17:33:36.252Z,18.20
2022-12-25T17:36:04.461Z,17.55
2022-12-25T17:38:32.034Z,18.33
2022-12-25T17:40:59.666Z,17.38
2022-12-25T17:43:26.154Z,19.38
2022-12-25T17:45:52.670Z,20.65
2022-12-25T17:48:19.231Z,20.05
2022-12-25T17:50:46.237Z,18.42
2022-12-25T17:53:12.662Z,19.30
2022-12-25T17:55:41.090Z,17.90
2022-12-25T17:58:08.368Z,16.42
2022-12-25T18:00:35.597Z,16.48
2022-12-25T18:03:10.542Z,16.30
2022-12-25T18:05:37.856Z,14.65
2022-12-25T18:08:05.235Z,14.60
2022-12-25T18:10:36.697Z,14.75
2022-12-25T18:13:03.266Z,15.60
2022-12-25T18:15:30.589Z,16.13
2022-12-25T18:17:57.053Z,14.80
2022-12-25T18:20:23.578Z,15.00
2022-12-25T18:22:50.000Z,16.27
2022-12-25T18:25:16.443Z,17.48
2022-12-25T18:27:42.874Z,18.58
2022-12-25T18:30:09.912Z,18.15
2022-12-25T18:32:36.941Z,18.60
2022-12-25T18:35:03.448Z,17.70
2022-12-25T18:37:33.112Z,15.32
2022-12-25T18:40:04.873Z,17.83
2022-12-25T18:42:40.112Z,20.17
2022-12-25T18:45:08.728Z,20.38
2022-12-25T18:47:35.249Z,24.48
2022-12-25T18:50:01.728Z,20.95
2022-12-25T18:52:47.308Z,24.63
2022-12-25T18:55:14.625Z,21.45
2022-12-25T18:57:41.166Z,18.67
2022-12-25T19:00:08.277Z,19.85
2022-12-25T19:02:34.932Z,20.17
2022-12-25T19:05:01.497Z,18.42
2022-12-25T19:07:27.900Z,17.83
2022-12-25T19:09:54.282Z,16.75
2022-12-25T19:12:20.731Z,16.73
2022-12-25T19:14:48.373Z,18.98
2022-12-25T19:17:15.921Z,22.52
2022-12-25T19:19:42.380Z,24.40
2022-12-25T19:22:08.837Z,26.08
2022-12-25T19:24:36.104Z,27.60
2022-12-25T19:27:03.101Z,20.48
2022-12-25T19:29:29.617Z,18.65
2022-12-25T19:31:56.459Z,22.38
2022-12-25T19:34:23.065Z,21.27
2022-12-25T19:36:49.516Z,20.08
2022-12-25T19:39:15.896Z,18.35
2022-12-25T19:41:42.441Z,18.75
2022-12-25T19:44:08.818Z,17.05
2022-12-25T19:46:37.707Z,15.88
2022-12-25T19:49:04.710Z,15.95
2022-12-25T19:51:37.066Z,15.07
2022-12-25T19:54:04.722Z,14.60
2022-12-25T19:56:31.660Z,14.27
2022-12-25T19:58:58.522Z,14.90
2022-12-25T20:01:26.725Z,15.90
2022-12-25T20:03:53.757Z,17.80
2022-12-25T20:06:26.343Z,16.45
2022-12-25T20:08:56.035Z,14.02
2022-12-25T20:11:23.640Z,16.90
2022-12-25T20:13:50.283Z,16.02
2022-12-25T20:16:17.060Z,13.57
2022-12-25T20:18:43.590Z,13.15
2022-12-25T20:21:18.368Z,11.93
2022-12-25T20:23:47.180Z,12.50
2022-12-25T20:26:14.603Z,13.52
2022-12-25T20:28:41.967Z,11.40
2022-12-25T20:31:11.630Z,12.80
2022-12-25T20:33:38.094Z,11.02
2022-12-25T20:36:05.392Z,12.23
2022-12-25T20:38:31.879Z,12.63
2022-12-25T20:41:26.309Z,12.35
2022-12-25T20:43:47.711Z,14.75
2022-12-25T20:46:14.332Z,13.18
2022-12-25T20:48:40.808Z,12.75
2022-12-25T20:51:18.617Z,14.18
2022-12-25T20:53:45.206Z,13.23
2022-12-25T20:56:13.109Z,14.13
2022-12-25T20:58:39.818Z,12.98
2022-12-25T21:01:08.255Z,14.80
2022-12-25T21:03:35.100Z,15.32
2022-12-25T21:06:01.824Z,17.10
2022-12-25T21:08:28.566Z,14.65
2022-12-25T21:11:00.471Z,15.50
2022-12-25T21:13:32.009Z,18.20
2022-12-25T21:15:58.745Z,15.55
2022-12-25T21:18:27.036Z,14.48
2022-12-25T21:20:56.943Z,18.65
2022-12-25T21:25:49.799Z,14.50
2022-12-25T21:28:16.889Z,13.35
2022-12-25T21:30:43.333Z,15.57
2022-12-25T21:33:32.012Z,17.42
2022-12-25T21:36:06.763Z,13.65
2022-12-25T21:38:33.323Z,15.05
2022-12-25T21:41:07.677Z,13.77
2022-12-25T21:43:35.179Z,14.38
2022-12-25T21:46:06.551Z,13.32
2022-12-25T21:48:34.334Z,12.93
2022-12-25T21:51:41.834Z,12.80
2022-12-25T21:54:08.686Z,13.00
2022-12-25T21:56:43.461Z,11.88
2022-12-25T21:59:13.127Z,12.93
2022-12-25T22:01:39.606Z,15.65
2022-12-25T22:04:07.786Z,15.68
2022-12-25T22:06:53.320Z,13.93
2022-12-25T22:09:20.352Z,12.40
2022-12-25T22:12:05.360Z,12.13
2022-12-25T22:14:53.740Z,13.13
2022-12-25T22:17:48.356Z,12.20
2022-12-25T22:20:19.172Z,11.00
2022-12-25T22:22:46.128Z,12.68
2022-12-25T22:25:13.682Z,14.55
2022-12-25T22:27:41.575Z,12.82
2022-12-25T22:30:11.908Z,12.70
2022-12-25T22:32:38.779Z,14.85
2022-12-25T22:35:06.061Z,12.98
2022-12-25T22:37:32.661Z,14.75
2022-12-25T22:40:01.179Z,13.68
2022-12-25T22:42:28.180Z,11.30
2022-12-25T22:44:54.625Z,14.30
2022-12-25T22:47:21.161Z,12.40
2022-12-25T22:49:47.564Z,13.77
2022-12-25T22:52:13.938Z,15.88
2022-12-25T22:54:40.489Z,12.68
2022-12-25T22:57:07.040Z,13.55
2022-12-25T22:59:33.525Z,14.07
2022-12-25T23:02:00.631Z,14.43
2022-12-25T23:04:28.128Z,15.90
2022-12-25T23:06:54.650Z,17.00
2022-12-25T23:09:24.878Z,13.75
2022-12-25T23:11:51.465Z,13.07
2022-12-25T23:14:36.494Z,14.57
2022-12-25T23:17:02.932Z,13.02
2022-12-25T23:19:48.036Z,14.05
2022-12-25T23:22:32.720Z,13.45
2022-12-25T23:25:17.766Z,13.48
2022-12-25T23:27:44.946Z,13.35
2022-12-25T23:30:16.126Z,13.50
2022-12-25T23:32:43.591Z,12.68
2022-12-25T23:35:10.893Z,13.93
2022-12-25T23:37:37.312Z,15.48
2022-12-25T23:40:04.058Z,13.88
2022-12-25T23:42:30.437Z,13.60
2022-12-25T23:44:56.874Z,14.07
2022-12-25T23:47:23.319Z,15.82
2022-12-25T23:49:49.695Z,15.00
2022-12-25T23:52:16.133Z,13.88
2022-12-25T23:54:42.576Z,12.73
2022-12-25T23:57:09.013Z,10.88
2022-12-25T23:59:35.588Z,12.77
